createdAt,value
2019-05-23T00:02:52.077Z,13.80
2019-05-23T00:05:45.329Z,13.78
2019-05-23T00:08:33.508Z,13.73
2019-05-23T00:11:23.604Z,13.70
2019-05-23T00:14:30.870Z,13.67
2019-05-23T00:17:01.537Z,13.62
2019-05-23T00:19:29.641Z,13.59
2019-05-23T00:21:58.098Z,13.57
2019-05-23T00:24:27.669Z,13.54
2019-05-23T00:26:57.996Z,13.51
2019-05-23T00:29:28.515Z,13.50
2019-05-23T00:32:01.406Z,13.48
2019-05-23T00:34:31.180Z,13.48
2019-05-23T00:37:01.820Z,13.48
2019-05-23T00:39:30.768Z,13.46
2019-05-23T00:41:58.883Z,13.44
2019-05-23T00:44:27.769Z,13.45
2019-05-23T00:46:56.635Z,13.45
2019-05-23T00:49:26.060Z,13.43
2019-05-23T00:51:54.837Z,13.41
2019-05-23T00:54:24.266Z,13.40
2019-05-23T00:56:52.508Z,13.39
2019-05-23T00:59:26.977Z,13.36
2019-05-23T01:01:51.989Z,13.35
2019-05-23T01:04:21.427Z,13.34
2019-05-23T01:06:50.163Z,13.32
2019-05-23T01:09:18.773Z,13.29
2019-05-23T01:11:47.409Z,13.29
2019-05-23T01:14:16.253Z,13.25
2019-05-23T01:16:44.701Z,13.22
2019-05-23T01:19:15.847Z,13.24
2019-05-23T01:22:05.031Z,13.25
2019-05-23T01:24:40.581Z,13.26
2019-05-23T01:27:09.672Z,13.23
2019-05-23T01:29:42.461Z,13.19
2019-05-23T01:32:20.037Z,13.18
2019-05-23T01:34:49.190Z,13.16
2019-05-23T01:37:18.294Z,13.17
2019-05-23T01:39:46.884Z,13.16
2019-05-23T01:42:16.947Z,13.13
2019-05-23T01:44:46.795Z,13.14
2019-05-23T01:47:17.570Z,13.13
2019-05-23T01:49:46.354Z,13.08
2019-05-23T01:52:15.962Z,13.08
2019-05-23T01:54:44.230Z,13.04
2019-05-23T01:57:12.441Z,13.01
2019-05-23T01:59:41.112Z,13.00
2019-05-23T02:02:10.721Z,12.98
2019-05-23T02:04:40.027Z,12.97
2019-05-23T02:07:09.204Z,12.95
2019-05-23T02:09:38.011Z,12.92
2019-05-23T02:12:09.991Z,12.90
2019-05-23T02:14:40.108Z,12.88
2019-05-23T02:17:10.590Z,12.87
2019-05-23T02:19:40.804Z,12.82
2019-05-23T02:22:09.920Z,12.79
2019-05-23T02:24:38.480Z,12.77
2019-05-23T02:27:09.331Z,12.73
2019-05-23T02:29:37.892Z,12.72
2019-05-23T02:32:06.731Z,12.73
2019-05-23T02:34:37.224Z,12.72
2019-05-23T02:37:11.220Z,12.72
2019-05-23T02:39:53.975Z,12.70
2019-05-23T02:42:39.758Z,12.67
2019-05-23T02:45:17.903Z,12.63
2019-05-23T02:47:48.731Z,12.61
2019-05-23T02:50:31.696Z,12.58
2019-05-23T02:53:02.368Z,12.58
2019-05-23T02:55:37.756Z,12.57
2019-05-23T02:58:32.693Z,12.53
2019-05-23T03:01:56.403Z,12.52
2019-05-23T03:04:28.695Z,12.48
2019-05-23T03:07:00.759Z,12.44
2019-05-23T03:09:33.035Z,12.43
2019-05-23T03:12:01.640Z,12.42
2019-05-23T03:14:33.853Z,12.37
2019-05-23T03:17:03.000Z,12.37
2019-05-23T03:19:51.336Z,12.34
2019-05-23T03:22:47.677Z,12.34
2019-05-23T03:26:26.380Z,12.33
2019-05-23T03:28:54.982Z,12.30
2019-05-23T03:31:48.845Z,12.26
2019-05-23T03:34:20.882Z,12.24
2019-05-23T03:36:49.725Z,12.23
2019-05-23T03:39:19.272Z,12.18
2019-05-23T03:41:48.077Z,12.18
2019-05-23T03:44:16.825Z,12.18
2019-05-23T03:46:47.193Z,12.18
2019-05-23T03:49:18.849Z,12.16
2019-05-23T03:51:47.325Z,12.15
2019-05-23T03:54:15.620Z,12.15
2019-05-23T03:56:44.058Z,12.15
2019-05-23T03:59:13.688Z,12.15
2019-05-23T04:01:48.259Z,12.14
2019-05-23T04:04:14.693Z,12.13
2019-05-23T04:06:43.368Z,12.12
2019-05-23T04:09:11.539Z,12.13
2019-05-23T04:11:39.596Z,12.10
2019-05-23T04:14:09.573Z,12.08
2019-05-23T04:16:38.698Z,12.07
2019-05-23T04:19:06.776Z,12.08
2019-05-23T04:21:36.065Z,12.09
2019-05-23T04:24:04.893Z,12.12
2019-05-23T04:26:32.885Z,12.11
2019-05-23T04:29:01.301Z,12.11
2019-05-23T04:31:29.606Z,12.12
2019-05-23T04:33:58.075Z,12.11
2019-05-23T04:36:26.114Z,12.10
2019-05-23T04:38:54.287Z,12.09
2019-05-23T04:41:22.802Z,12.13
2019-05-23T04:43:51.914Z,12.10
2019-05-23T04:46:20.562Z,12.10
2019-05-23T04:48:49.389Z,12.11
2019-05-23T04:51:19.184Z,12.11
2019-05-23T04:53:47.317Z,12.12
2019-05-23T04:56:15.498Z,12.14
2019-05-23T04:58:44.014Z,12.15
2019-05-23T05:01:15.042Z,12.16
2019-05-23T05:03:44.911Z,12.18
2019-05-23T05:06:14.052Z,12.19
2019-05-23T05:08:42.196Z,12.20
2019-05-23T05:11:11.106Z,12.24
2019-05-23T05:13:41.045Z,12.28
2019-05-23T05:16:09.079Z,12.35
2019-05-23T05:18:37.560Z,12.37
2019-05-23T05:21:05.572Z,12.39
2019-05-23T05:23:33.708Z,12.43
2019-05-23T05:26:02.106Z,12.47
2019-05-23T05:28:30.339Z,12.51
2019-05-23T05:30:58.562Z,12.56
2019-05-23T05:33:27.145Z,12.61
2019-05-23T05:35:55.341Z,12.68
2019-05-23T05:38:23.868Z,12.73
2019-05-23T05:40:51.937Z,12.78
2019-05-23T05:43:20.162Z,12.82
2019-05-23T05:45:48.666Z,12.87
2019-05-23T05:48:16.703Z,12.92
2019-05-23T05:50:45.201Z,12.99
2019-05-23T05:53:13.904Z,13.08
2019-05-23T05:55:42.011Z,13.15
2019-05-23T05:58:10.151Z,13.25
2019-05-23T06:00:59.411Z,13.34
2019-05-23T06:03:27.992Z,13.43
2019-05-23T06:06:12.880Z,13.51
2019-05-23T06:08:42.814Z,13.60
2019-05-23T06:11:11.847Z,13.72
2019-05-23T06:13:40.666Z,13.80
2019-05-23T06:16:08.999Z,13.88
2019-05-23T06:18:37.432Z,14.00
2019-05-23T06:21:06.741Z,14.11
2019-05-23T06:23:35.706Z,14.24
2019-05-23T06:26:03.851Z,14.36
2019-05-23T06:28:32.353Z,14.50
2019-05-23T06:31:01.782Z,14.66
2019-05-23T06:33:31.046Z,14.80
2019-05-23T06:35:59.852Z,14.95
2019-05-23T06:38:28.452Z,15.08
2019-05-23T06:40:57.928Z,15.23
2019-05-23T06:43:27.303Z,15.38
2019-05-23T06:45:55.953Z,15.54
2019-05-23T06:48:24.479Z,15.70
2019-05-23T06:50:52.951Z,15.89
2019-05-23T06:53:21.052Z,16.03
2019-05-23T06:55:49.235Z,16.18
2019-05-23T06:58:17.330Z,16.36
2019-05-23T07:00:46.148Z,16.55
2019-05-23T07:03:14.721Z,16.71
2019-05-23T07:05:43.352Z,16.90
2019-05-23T07:08:12.086Z,17.09
2019-05-23T07:10:41.915Z,17.26
2019-05-23T07:13:09.970Z,17.43
2019-05-23T07:15:38.429Z,17.62
2019-05-23T07:18:06.813Z,17.77
2019-05-23T07:20:34.966Z,17.96
2019-05-23T07:23:05.792Z,18.20
2019-05-23T07:25:34.289Z,18.45
2019-05-23T07:28:02.335Z,18.69
2019-05-23T07:30:30.948Z,18.92
2019-05-23T07:32:59.339Z,19.17
2019-05-23T07:35:27.904Z,19.42
2019-05-23T07:37:56.729Z,19.68
2019-05-23T07:40:26.714Z,19.94
2019-05-23T07:42:55.639Z,20.19
2019-05-23T07:45:29.980Z,20.43
2019-05-23T07:48:45.944Z,20.67
2019-05-23T07:51:13.921Z,20.93
2019-05-23T07:54:07.042Z,21.26
2019-05-23T07:56:36.038Z,21.52
2019-05-23T07:59:04.625Z,21.82
2019-05-23T08:01:34.765Z,22.05
2019-05-23T08:12:01.303Z,22.93
2019-05-23T08:14:29.660Z,23.28
2019-05-23T08:16:57.546Z,23.55
2019-05-23T08:19:25.964Z,23.84
2019-05-23T08:21:53.647Z,24.12
2019-05-23T08:24:21.592Z,24.41
2019-05-23T08:26:50.736Z,24.71
2019-05-23T08:29:25.871Z,24.96
2019-05-23T08:31:51.989Z,25.18
2019-05-23T08:34:19.567Z,25.38
2019-05-23T08:36:47.434Z,25.56
2019-05-23T08:39:15.273Z,25.74
2019-05-23T08:41:42.829Z,25.91
2019-05-23T08:44:11.542Z,26.11
2019-05-23T08:46:40.208Z,26.32
2019-05-23T08:49:08.305Z,26.55
2019-05-23T08:51:36.934Z,26.76
2019-05-23T08:54:05.199Z,26.99
2019-05-23T08:56:32.839Z,27.19
2019-05-23T08:59:00.813Z,27.39
2019-05-23T09:01:28.644Z,27.56
2019-05-23T09:03:58.697Z,27.75
2019-05-23T09:06:27.043Z,27.93
2019-05-23T09:08:55.185Z,28.13
2019-05-23T09:11:23.666Z,28.31
2019-05-23T09:13:51.912Z,28.48
2019-05-23T09:16:19.893Z,28.66
2019-05-23T09:18:47.741Z,28.84
2019-05-23T09:21:15.449Z,29.06
2019-05-23T09:23:43.131Z,29.29
2019-05-23T09:26:11.126Z,29.48
2019-05-23T09:28:38.737Z,29.63
2019-05-23T09:31:06.755Z,29.79
2019-05-23T09:33:34.805Z,29.90
2019-05-23T09:36:02.861Z,29.98
2019-05-23T09:38:30.586Z,30.08
2019-05-23T09:40:58.716Z,30.20
2019-05-23T09:43:26.320Z,30.37
2019-05-23T09:45:53.838Z,30.52
2019-05-23T09:48:22.818Z,30.68
2019-05-23T09:50:50.834Z,30.83
2019-05-23T09:53:20.511Z,31.00
2019-05-23T09:55:48.114Z,31.18
2019-05-23T09:58:15.773Z,31.37
2019-05-23T10:00:43.406Z,31.51
2019-05-23T10:03:11.540Z,31.66
2019-05-23T10:05:43.628Z,31.81
2019-05-23T10:08:09.007Z,31.96
2019-05-23T10:10:37.293Z,32.10
2019-05-23T10:13:05.007Z,32.22
2019-05-23T10:15:51.796Z,32.37
2019-05-23T10:18:20.783Z,32.51
2019-05-23T10:20:48.399Z,32.68
2019-05-23T10:23:16.135Z,32.82
2019-05-23T10:25:44.482Z,32.97
2019-05-23T10:28:12.349Z,33.09
2019-05-23T10:30:40.492Z,33.24
2019-05-23T10:33:11.896Z,33.36
2019-05-23T10:35:38.593Z,33.44
2019-05-23T10:38:06.485Z,33.49
2019-05-23T10:40:34.359Z,33.51
2019-05-23T10:43:02.250Z,33.52
2019-05-23T10:45:30.019Z,33.58
2019-05-23T10:47:57.711Z,33.60
2019-05-23T10:50:25.415Z,33.64
2019-05-23T10:52:53.000Z,33.73
2019-05-23T10:55:22.415Z,33.81
2019-05-23T10:57:50.162Z,33.92
2019-05-23T11:00:21.282Z,34.06
2019-05-23T11:02:49.768Z,34.21
2019-05-23T11:05:18.036Z,34.33
2019-05-23T11:07:45.966Z,34.42
2019-05-23T11:10:15.352Z,34.47
2019-05-23T11:12:43.155Z,34.50
2019-05-23T11:15:14.516Z,34.53
2019-05-23T11:17:42.165Z,34.53
2019-05-23T11:20:12.024Z,34.53
2019-05-23T11:22:40.205Z,34.56
2019-05-23T11:25:11.066Z,34.63
2019-05-23T11:27:38.738Z,34.73
2019-05-23T11:30:10.371Z,34.87
2019-05-23T11:32:38.044Z,34.99
2019-05-23T11:35:06.119Z,35.08
2019-05-23T11:37:34.308Z,35.15
2019-05-23T11:40:02.344Z,35.25
2019-05-23T11:42:29.962Z,35.38
2019-05-23T11:44:57.701Z,35.46
2019-05-23T11:47:25.970Z,35.49
2019-05-23T11:49:53.742Z,35.50
2019-05-23T11:52:21.627Z,35.54
2019-05-23T11:54:49.468Z,35.60
2019-05-23T11:57:17.496Z,35.69
2019-05-23T11:59:45.104Z,35.76
2019-05-23T12:02:22.655Z,35.84
2019-05-23T12:04:50.841Z,35.88
2019-05-23T12:07:26.755Z,35.90
2019-05-23T12:09:54.427Z,35.87
2019-05-23T12:12:22.531Z,35.80
2019-05-23T12:14:49.920Z,35.75
2019-05-23T12:17:22.608Z,35.73
2019-05-23T12:19:50.083Z,35.74
2019-05-23T12:22:18.120Z,35.74
2019-05-23T12:24:45.952Z,35.75
2019-05-23T12:27:14.013Z,35.73
2019-05-23T12:29:42.098Z,35.71
2019-05-23T12:32:11.928Z,35.73
2019-05-23T12:34:39.604Z,35.76
2019-05-23T12:37:19.030Z,35.79
2019-05-23T12:39:36.767Z,35.83
2019-05-23T12:42:04.594Z,35.85
2019-05-23T12:44:32.065Z,35.80
2019-05-23T12:47:00.548Z,35.80
2019-05-23T12:49:33.394Z,35.82
2019-05-23T12:52:01.413Z,35.85
2019-05-23T12:54:30.085Z,35.91
2019-05-23T12:56:57.923Z,35.94
2019-05-23T12:59:26.000Z,35.93
2019-05-23T13:01:55.740Z,35.92
2019-05-23T13:04:24.712Z,35.95
2019-05-23T13:06:52.922Z,35.97
2019-05-23T13:09:21.759Z,35.96
2019-05-23T13:11:49.521Z,35.91
2019-05-23T13:14:18.977Z,35.88
2019-05-23T13:16:46.936Z,35.86
2019-05-23T13:19:15.139Z,35.78
2019-05-23T13:21:42.851Z,35.73
2019-05-23T13:24:10.819Z,35.67
2019-05-23T13:26:39.127Z,35.67
2019-05-23T13:29:07.816Z,35.66
2019-05-23T13:31:35.677Z,35.61
2019-05-23T13:34:03.633Z,35.57
2019-05-23T13:36:31.359Z,35.51
2019-05-23T13:38:59.154Z,35.40
2019-05-23T13:41:26.856Z,35.31
2019-05-23T13:43:55.420Z,35.23
2019-05-23T13:46:23.575Z,35.13
2019-05-23T13:48:51.400Z,35.03
2019-05-23T13:51:18.863Z,34.95
2019-05-23T13:53:46.413Z,34.85
2019-05-23T13:56:14.242Z,34.74
2019-05-23T13:58:43.068Z,34.63
2019-05-23T14:01:11.598Z,34.62
2019-05-23T14:03:39.770Z,34.58
2019-05-23T14:06:07.485Z,34.52
2019-05-23T14:08:35.311Z,34.45
2019-05-23T14:11:03.467Z,34.37
2019-05-23T14:13:31.862Z,34.27
2019-05-23T14:16:00.476Z,34.16
2019-05-23T14:18:29.613Z,34.06
2019-05-23T14:21:36.406Z,33.92
2019-05-23T14:24:05.287Z,33.76
2019-05-23T14:26:39.185Z,33.60
2019-05-23T14:29:06.870Z,33.51
2019-05-23T14:31:41.131Z,33.41
2019-05-23T14:34:12.206Z,33.29
2019-05-23T14:37:09.364Z,33.16
2019-05-23T14:39:45.172Z,33.01
2019-05-23T14:42:31.122Z,32.75
2019-05-23T14:44:59.265Z,32.50
2019-05-23T14:47:41.394Z,32.33
2019-05-23T14:50:26.064Z,32.19
2019-05-23T14:52:54.749Z,32.04
2019-05-23T14:55:24.030Z,31.90
2019-05-23T14:57:53.325Z,31.79
2019-05-23T15:00:24.401Z,31.67
2019-05-23T15:02:52.032Z,31.53
2019-05-23T15:05:20.055Z,31.40
2019-05-23T15:07:47.753Z,31.25
2019-05-23T15:10:17.051Z,31.08
2019-05-23T15:12:45.126Z,30.89
2019-05-23T15:15:13.425Z,30.70
2019-05-23T15:17:40.896Z,30.49
2019-05-23T15:20:09.858Z,30.31
2019-05-23T15:22:37.426Z,30.14
2019-05-23T15:25:06.017Z,29.96
2019-05-23T15:27:33.798Z,29.76
2019-05-23T15:30:01.617Z,29.58
2019-05-23T15:32:30.564Z,29.40
2019-05-23T15:34:58.143Z,29.23
2019-05-23T15:37:25.802Z,29.07
2019-05-23T15:39:53.669Z,28.89
2019-05-23T15:42:22.034Z,28.74
2019-05-23T15:44:50.068Z,28.61
2019-05-23T15:47:20.059Z,28.49
2019-05-23T15:49:50.080Z,28.38
2019-05-23T15:52:29.678Z,28.26
2019-05-23T15:55:03.170Z,28.15
2019-05-23T15:57:42.240Z,28.02
2019-05-23T16:00:21.471Z,27.92
2019-05-23T16:03:01.489Z,27.82
2019-05-23T16:05:30.494Z,27.73
2019-05-23T16:07:58.537Z,27.63
2019-05-23T16:10:26.629Z,27.54
2019-05-23T16:12:54.860Z,27.46
2019-05-23T16:15:25.685Z,27.37
2019-05-23T16:17:53.242Z,27.27
2019-05-23T16:20:21.349Z,27.18
2019-05-23T16:22:49.144Z,27.10
2019-05-23T16:25:17.367Z,27.02
2019-05-23T16:27:45.478Z,26.95
2019-05-23T16:30:13.467Z,26.87
2019-05-23T16:32:41.420Z,26.80
2019-05-23T16:35:37.743Z,26.73
2019-05-23T16:38:11.382Z,26.66
2019-05-23T16:40:42.432Z,26.56
2019-05-23T16:43:10.303Z,26.49
2019-05-23T16:45:37.992Z,26.41
2019-05-23T16:48:07.019Z,26.38
2019-05-23T16:50:34.974Z,26.32
2019-05-23T16:53:02.641Z,26.27
2019-05-23T16:55:39.992Z,26.22
2019-05-23T16:58:19.069Z,26.14
2019-05-23T17:01:24.035Z,26.09
2019-05-23T17:03:57.737Z,26.00
2019-05-23T17:06:46.788Z,25.92
2019-05-23T17:09:31.897Z,25.86
2019-05-23T17:12:19.546Z,25.81
2019-05-23T17:15:09.811Z,25.75
2019-05-23T17:18:12.322Z,25.70
2019-05-23T17:20:57.244Z,25.67
2019-05-23T17:23:44.778Z,25.59
2019-05-23T17:26:36.081Z,25.51
2019-05-23T17:29:10.216Z,25.47
2019-05-23T17:31:39.041Z,25.41
2019-05-23T17:34:07.264Z,25.36
2019-05-23T17:36:35.072Z,25.31
2019-05-23T17:39:04.842Z,25.26
2019-05-23T17:41:32.315Z,25.20
2019-05-23T17:44:00.187Z,25.14
2019-05-23T17:46:27.852Z,25.09
2019-05-23T17:48:55.659Z,25.02
2019-05-23T17:51:26.523Z,24.96
2019-05-23T17:53:55.117Z,24.91
2019-05-23T17:56:23.310Z,24.88
2019-05-23T17:58:50.955Z,24.81
2019-05-23T18:01:19.377Z,24.75
2019-05-23T18:03:46.912Z,24.71
2019-05-23T18:06:14.828Z,24.67
2019-05-23T18:08:43.001Z,24.61
2019-05-23T18:11:11.068Z,24.55
2019-05-23T18:14:43.572Z,24.55
2019-05-23T18:17:13.513Z,24.44
2019-05-23T18:19:41.780Z,24.40
2019-05-23T18:22:12.251Z,24.37
2019-05-23T18:24:40.636Z,24.33
2019-05-23T18:27:12.907Z,24.30
2019-05-23T18:29:41.640Z,24.25
2019-05-23T18:32:15.647Z,24.19
2019-05-23T18:34:44.034Z,24.14
2019-05-23T18:37:12.302Z,24.07
2019-05-23T18:39:40.431Z,24.00
2019-05-23T18:42:08.619Z,23.95
2019-05-23T18:44:37.999Z,23.90
2019-05-23T18:47:11.390Z,23.85
2019-05-23T18:49:39.465Z,23.80
2019-05-23T18:52:07.983Z,23.74
2019-05-23T18:54:36.332Z,23.67
2019-05-23T18:57:04.757Z,23.62
2019-05-23T18:59:34.734Z,23.56
2019-05-23T19:02:05.304Z,23.50
2019-05-23T19:04:33.449Z,23.42
2019-05-23T19:07:02.842Z,23.35
2019-05-23T19:09:31.510Z,23.29
2019-05-23T19:11:59.613Z,23.23
2019-05-23T19:14:27.902Z,23.16
2019-05-23T19:16:57.199Z,23.07
2019-05-23T19:19:27.353Z,23.00
2019-05-23T19:21:55.626Z,22.92
2019-05-23T19:24:23.838Z,22.84
2019-05-23T19:26:52.494Z,22.76
2019-05-23T19:29:21.569Z,22.68
2019-05-23T19:31:50.210Z,22.60
2019-05-23T19:34:18.595Z,22.52
2019-05-23T19:36:47.041Z,22.45
2019-05-23T19:39:16.414Z,22.36
2019-05-23T19:41:44.844Z,22.29
2019-05-23T19:44:13.453Z,22.22
2019-05-23T19:46:41.871Z,22.15
2019-05-23T19:49:10.900Z,22.09
2019-05-23T19:51:40.193Z,22.03
2019-05-23T19:54:08.416Z,21.97
2019-05-23T19:56:37.637Z,21.92
2019-05-23T19:59:05.669Z,21.85
2019-05-23T20:01:45.518Z,21.79
2019-05-23T20:04:14.817Z,21.72
2019-05-23T20:06:43.341Z,21.64
2019-05-23T20:09:15.354Z,21.57
2019-05-23T20:11:53.765Z,21.49
2019-05-23T20:14:13.435Z,21.42
2019-05-23T20:16:41.837Z,21.34
2019-05-23T20:19:10.998Z,21.26
2019-05-23T20:21:39.052Z,21.20
2019-05-23T20:24:07.241Z,21.13
2019-05-23T20:26:35.315Z,21.07
2019-05-23T20:29:03.624Z,20.99
2019-05-23T20:31:32.396Z,20.96
2019-05-23T20:34:00.750Z,20.91
2019-05-23T20:36:28.767Z,20.82
2019-05-23T20:38:56.861Z,20.75
2019-05-23T20:41:28.809Z,20.66
2019-05-23T20:43:56.915Z,20.58
2019-05-23T20:46:25.413Z,20.51
2019-05-23T20:48:53.540Z,20.44
2019-05-23T20:51:21.663Z,20.35
2019-05-23T20:53:50.355Z,20.27
2019-05-23T20:56:18.361Z,20.20
2019-05-23T20:58:46.450Z,20.12
2019-05-23T21:01:19.676Z,20.04
2019-05-23T21:03:48.661Z,19.98
2019-05-23T21:06:17.011Z,19.91
2019-05-23T21:08:45.119Z,19.84
2019-05-23T21:11:13.405Z,19.76
2019-05-23T21:13:43.029Z,19.68
2019-05-23T21:16:11.113Z,19.62
2019-05-23T21:18:39.561Z,19.55
2019-05-23T21:21:07.514Z,19.49
2019-05-23T21:23:35.901Z,19.44
2019-05-23T21:26:06.883Z,19.39
2019-05-23T21:28:35.654Z,19.32
2019-05-23T21:31:07.070Z,19.27
2019-05-23T21:33:35.492Z,19.23
2019-05-23T21:36:03.789Z,19.17
2019-05-23T21:38:32.039Z,19.13
2019-05-23T21:41:03.199Z,19.08
2019-05-23T21:43:30.289Z,19.03
2019-05-23T21:45:58.783Z,18.96
2019-05-23T21:48:26.923Z,18.90
2019-05-23T21:50:55.403Z,18.83
2019-05-23T21:53:23.754Z,18.78
2019-05-23T21:55:51.886Z,18.72
2019-05-23T21:58:19.939Z,18.68
2019-05-23T22:01:30.105Z,18.63
2019-05-23T22:04:09.452Z,18.58
2019-05-23T22:06:39.000Z,18.46
2019-05-23T22:09:10.068Z,18.37
2019-05-23T22:11:38.538Z,18.32
2019-05-23T22:14:07.829Z,18.28
2019-05-23T22:16:36.476Z,18.25
2019-05-23T22:19:07.129Z,18.21
2019-05-23T22:21:35.408Z,18.19
2019-05-23T22:24:04.408Z,18.17
2019-05-23T22:26:33.854Z,18.14
2019-05-23T22:29:02.711Z,18.11
2019-05-23T22:31:31.342Z,18.06
2019-05-23T22:34:31.150Z,17.97
2019-05-23T22:37:00.912Z,17.85
2019-05-23T22:39:30.133Z,17.62
2019-05-23T22:41:58.556Z,17.49
2019-05-23T22:44:27.482Z,17.41
2019-05-23T22:46:55.791Z,17.39
2019-05-23T22:49:23.833Z,17.36
2019-05-23T22:51:53.191Z,17.36
2019-05-23T22:54:22.328Z,17.34
2019-05-23T22:56:50.472Z,17.30
2019-05-23T22:59:20.162Z,17.30
2019-05-23T23:01:48.547Z,17.27
2019-05-23T23:04:17.751Z,17.24
2019-05-23T23:06:45.921Z,17.19
2019-05-23T23:09:14.137Z,17.14
2019-05-23T23:11:42.237Z,17.10
2019-05-23T23:14:11.491Z,17.07
2019-05-23T23:16:39.883Z,17.03
2019-05-23T23:19:08.444Z,16.99
2019-05-23T23:21:36.817Z,16.94
2019-05-23T23:24:05.163Z,16.91
2019-05-23T23:26:33.638Z,16.89
2019-05-23T23:29:01.786Z,16.88
2019-05-23T23:31:30.271Z,16.86
2019-05-23T23:33:59.928Z,16.82
2019-05-23T23:36:28.121Z,16.80
2019-05-23T23:38:56.356Z,16.78
2019-05-23T23:41:24.664Z,16.75
2019-05-23T23:43:59.143Z,16.73
2019-05-23T23:46:40.894Z,16.72
2019-05-23T23:49:27.655Z,16.71
2019-05-23T23:52:15.988Z,16.69
2019-05-23T23:55:02.512Z,16.64
2019-05-23T23:57:50.285Z,16.60
